Thomastown, Minnesota
Current Conditions -  °F | °C
As of 6:13 PM on Thursday 27 Nov 2014 (Local Time) from KSAZ Reporting Station
Overcast Overcast  
Wind Chill: -8°   Ceiling: 11000
Heat Index:   Visibility: 10mi
Dew Point: -6°   Wind: 6mph
Humidity: 66%   Direction: 140°SE
Pressure: 30.26"   Gusts: NA
Location:  46.4671°N, 94.8901°W
Report Text: KSAZ 280013Z AUTO 14005KT 10SM OVC110 M16/M21 A3026 RMK AO2
Loading
Personal Weather Stations






























Interactive Weather Map New forecast layout! Learn more

10-Day Weather Forecast

Advertisements
Track Severe Weather on mobile